Time;durP1;ratioP1;P1;durP2;ratioP2;P2;SDS_P1;SDS_P2;PMS_P1;PMS_P2;Temp;Humidity;BMP_temperature;BMP_pressure;BME280_temperature;BME280_humidity;BME280_pressure;Samples;Min_cycle;Max_cycle;Signal;HPM_P1;HPM_P2
2022/04/06 00:01:15;;;;;;;37.13;18.20;;;;;;;4.57;86.62;98480.47;5058688;28;20045;-93
2022/04/06 00:03:43;;;;;;;35.75;18.20;;;;;;;4.67;86.62;98505.84;5058847;28;20057;-93
2022/04/06 00:06:10;;;;;;;31.08;17.25;;;;;;;4.52;87.59;98472.59;5058509;28;20048;-93
2022/04/06 00:08:36;;;;;;;32.70;18.40;;;;;;;4.60;86.90;98478.69;5058435;28;20053;-93
2022/04/06 00:11:02;;;;;;;30.38;16.67;;;;;;;4.65;87.15;98490.06;5058310;28;20045;-94
2022/04/06 00:13:28;;;;;;;31.30;18.58;;;;;;;4.36;87.81;98473.59;5057609;28;20137;-94
2022/04/06 00:15:54;;;;;;;30.27;17.55;;;;;;;4.22;88.77;98476.31;5058266;28;20085;-92
2022/04/06 00:18:20;;;;;;;32.28;17.77;;;;;;;4.25;89.10;98482.44;5058204;28;20041;-91
2022/04/06 00:20:46;;;;;;;35.28;18.65;;;;;;;4.21;89.83;98477.22;5058298;28;20041;-93
2022/04/06 00:23:15;;;;;;;31.70;17.98;;;;;;;4.25;90.92;98494.72;5058054;28;20073;-91
2022/04/06 00:25:40;;;;;;;33.75;17.23;;;;;;;4.28;91.20;98478.91;5058007;28;20041;-92
2022/04/06 00:28:06;;;;;;;31.95;18.15;;;;;;;4.17;90.70;98465.84;5057677;28;20041;-91
2022/04/06 00:30:33;;;;;;;31.98;18.38;;;;;;;4.13;91.04;98482.53;5058295;28;20040;-94
2022/04/06 00:32:58;;;;;;;34.50;19.88;;;;;;;4.08;91.36;98490.44;5057184;28;20049;-92
2022/04/06 00:35:32;;;;;;;41.67;20.38;;;;;;;4.03;91.39;98470.28;5057296;28;20037;-92
2022/04/06 00:37:58;;;;;;;32.00;17.67;;;;;;;4.05;90.53;98468.53;5057656;28;20044;-92
2022/04/06 00:40:26;;;;;;;33.08;18.13;;;;;;;4.09;89.54;98457.09;5057063;28;20040;-92
2022/04/06 00:42:53;;;;;;;32.40;18.25;;;;;;;4.19;88.90;98469.34;5057693;28;20040;-91
2022/04/06 00:45:19;;;;;;;32.35;17.02;;;;;;;4.08;89.09;98453.59;5056754;28;20049;-93
2022/04/06 00:47:45;;;;;;;28.52;15.93;;;;;;;4.08;89.42;98452.75;5057331;28;20041;-92
2022/04/06 00:50:11;;;;;;;27.35;15.75;;;;;;;4.18;89.74;98464.94;5057004;28;20043;-92
2022/04/06 00:52:39;;;;;;;26.00;15.57;;;;;;;4.28;89.77;98492.09;5059898;28;20047;-92
2022/04/06 00:55:06;;;;;;;25.02;15.30;;;;;;;4.25;89.92;98484.19;5057687;28;20049;-93
2022/04/06 00:57:34;;;;;;;28.33;15.57;;;;;;;4.06;90.68;98462.41;5057568;28;20053;-92
2022/04/06 01:00:02;;;;;;;26.50;15.98;;;;;;;4.17;89.77;98470.22;5056651;28;20041;-91
2022/04/06 01:02:28;;;;;;;31.58;16.63;;;;;;;4.19;89.34;98486.88;5057025;28;20055;-93
2022/04/06 01:04:53;;;;;;;25.45;15.68;;;;;;;4.10;88.73;98469.41;5057364;28;20049;-92
2022/04/06 01:07:20;;;;;;;25.70;15.95;;;;;;;4.06;88.82;98462.41;5057679;28;20037;-93
2022/04/06 01:09:46;;;;;;;28.30;17.00;;;;;;;4.12;89.42;98459.72;5057122;28;20045;-92
2022/04/06 01:12:13;;;;;;;25.50;16.00;;;;;;;4.04;88.52;98443.13;5057196;28;20076;-94
2022/04/06 01:14:40;;;;;;;24.88;14.55;;;;;;;4.09;88.06;98438.69;5056177;28;20045;-92
2022/04/06 01:17:08;;;;;;;24.52;14.27;;;;;;;4.22;86.59;98440.34;5056007;28;20049;-92
2022/04/06 01:19:35;;;;;;;23.00;14.05;;;;;;;4.56;85.50;98470.84;5056839;28;20098;-92
2022/04/06 01:22:06;;;;;;;23.10;13.38;;;;;;;4.61;84.27;98462.00;5057035;28;20049;-91
2022/04/06 01:24:32;;;;;;;23.38;14.27;;;;;;;4.71;83.22;98458.41;5056818;28;20044;-93
2022/04/06 01:27:00;;;;;;;30.15;15.30;;;;;;;4.71;82.36;98433.84;5056264;28;20064;-92
2022/04/06 01:29:25;;;;;;;25.45;15.98;;;;;;;4.92;81.37;98459.09;5056435;28;20094;-94
2022/04/06 01:31:51;;;;;;;24.50;14.95;;;;;;;4.81;81.16;98431.97;5055674;28;20413;-93
2022/04/06 01:34:17;;;;;;;27.70;16.35;;;;;;;4.92;80.57;98441.53;5056276;28;20045;-93
2022/04/06 01:36:43;;;;;;;28.58;16.67;;;;;;;5.09;79.66;98449.25;5055733;28;20140;-93
2022/04/06 01:39:10;;;;;;;25.60;16.15;;;;;;;5.11;78.91;98439.56;5056511;28;20049;-92
2022/04/06 01:41:37;;;;;;;24.77;15.15;;;;;;;5.11;79.22;98444.84;5062059;28;20073;-92
2022/04/06 01:44:04;;;;;;;21.65;14.57;;;;;;;5.07;79.31;98429.94;5055927;28;20045;-93
2022/04/06 01:46:30;;;;;;;20.83;14.07;;;;;;;5.09;79.80;98441.34;5056580;28;20037;-92
2022/04/06 01:55:00;;;;;;;20.15;13.65;;;;;;;4.64;84.39;98417.22;5110639;27;20385;-93
2022/04/06 01:57:27;;;;;;;20.15;13.25;;;;;;;4.44;85.43;98406.81;5094234;28;20054;-92
2022/04/06 01:59:53;;;;;;;26.00;13.63;;;;;;;4.33;86.08;98409.53;5094307;28;20044;-93
2022/04/06 02:02:20;;;;;;;24.95;14.35;;;;;;;4.22;87.67;98413.16;5094619;28;20044;-92
2022/04/06 02:04:46;;;;;;;21.45;12.90;;;;;;;4.07;88.26;98414.13;5094339;28;20093;-93
2022/04/06 02:07:13;;;;;;;20.58;13.02;;;;;;;3.95;89.25;98403.69;5094241;28;20102;-92
2022/04/06 02:09:40;;;;;;;23.10;13.13;;;;;;;3.93;90.67;98411.59;5093653;28;20440;-92
2022/04/06 02:12:10;;;;;;;21.25;13.02;;;;;;;3.91;91.09;98416.00;5093679;28;20541;-92
2022/04/06 02:14:37;;;;;;;16.75;11.32;;;;;;;3.86;90.79;98405.50;5093961;28;20124;-93
2022/04/06 02:17:04;;;;;;;20.33;11.65;;;;;;;3.97;90.16;98418.59;5093647;28;20037;-92
2022/04/06 02:19:31;;;;;;;17.75;10.77;;;;;;;4.01;90.08;98424.69;5098951;28;20047;-93
2022/04/06 02:21:57;;;;;;;18.77;11.35;;;;;;;4.05;89.70;98426.44;5104986;28;20410;-93
2022/04/06 02:24:23;;;;;;;18.70;10.82;;;;;;;3.93;89.54;98408.97;5094395;28;20138;-93
2022/04/06 02:26:48;;;;;;;14.40;9.82;;;;;;;3.87;89.59;98404.63;5093503;28;20043;-92
2022/04/06 02:29:16;;;;;;;17.30;10.52;;;;;;;3.85;89.65;98402.88;5094282;28;20052;-92
2022/04/06 02:31:42;;;;;;;15.88;10.80;;;;;;;3.94;90.23;98426.50;5093695;28;20044;-92
2022/04/06 02:34:08;;;;;;;16.50;10.60;;;;;;;3.72;90.65;98402.06;5093808;28;20067;-93
2022/04/06 02:36:34;;;;;;;16.27;9.77;;;;;;;3.81;90.46;98417.78;5095205;28;20406;-93
2022/04/06 02:39:00;;;;;;;14.93;9.73;;;;;;;3.78;90.23;98399.41;5093765;28;20071;-94
2022/04/06 02:41:26;;;;;;;17.13;9.77;;;;;;;3.67;90.06;98383.69;5093099;28;20040;-93
2022/04/06 02:43:52;;;;;;;16.13;9.10;;;;;;;3.69;89.05;98379.31;5093106;28;20040;-93
2022/04/06 02:46:19;;;;;;;15.30;9.38;;;;;;;3.84;89.25;98401.16;5092718;28;20132;-93
2022/04/06 02:48:46;;;;;;;17.85;9.80;;;;;;;3.81;89.34;98399.38;5093623;28;20123;-94
2022/04/06 02:51:11;;;;;;;17.98;9.57;;;;;;;3.61;89.45;98372.34;5093501;28;20135;-93
2022/04/06 02:53:37;;;;;;;15.00;8.70;;;;;;;3.65;89.66;98392.50;5097521;28;20079;-92
2022/04/06 02:56:04;;;;;;;15.77;9.15;;;;;;;3.68;89.90;98389.81;5093348;28;20041;-92
2022/04/06 02:58:32;;;;;;;15.13;8.95;;;;;;;3.65;90.29;98397.75;5108753;28;20044;-94
2022/04/06 03:00:58;;;;;;;16.03;8.83;;;;;;;3.73;90.13;98395.97;5102383;28;20062;-92
2022/04/06 03:03:26;;;;;;;12.85;8.68;;;;;;;3.49;89.84;98354.88;5093992;28;20066;-93
2022/04/06 03:05:52;;;;;;;12.23;8.02;;;;;;;3.46;91.06;98362.78;5082065;28;20068;-92
2022/04/06 03:08:18;;;;;;;15.80;8.90;;;;;;;3.48;90.90;98380.28;5080433;28;20110;-94
2022/04/06 03:10:44;;;;;;;15.75;9.57;;;;;;;3.28;92.27;98354.09;5079094;28;20049;-93
2022/04/06 03:13:10;;;;;;;14.60;8.75;;;;;;;3.32;93.15;98362.88;5079618;28;20090;-92
2022/04/06 03:15:36;;;;;;;17.02;8.40;;;;;;;3.26;93.29;98357.63;5079626;28;20151;-93
2022/04/06 03:18:03;;;;;;;13.18;8.25;;;;;;;3.26;93.05;98347.13;5079299;28;20072;-92
2022/04/06 03:20:31;;;;;;;13.32;8.00;;;;;;;3.24;92.32;98351.50;5079918;28;20121;-93
2022/04/06 03:22:57;;;;;;;12.90;8.52;;;;;;;3.44;93.35;98375.94;5080005;28;20049;-91
2022/04/06 03:25:23;;;;;;;15.23;8.75;;;;;;;3.37;92.15;98370.72;5079421;28;20044;-93
2022/04/06 03:27:51;;;;;;;14.23;8.32;;;;;;;3.27;93.20;98356.72;5079728;28;20063;-93
2022/04/06 03:30:17;;;;;;;13.35;8.50;;;;;;;3.18;93.25;98341.88;5079398;28;20090;-93
2022/04/06 03:32:43;;;;;;;16.65;9.32;;;;;;;3.28;93.05;98374.25;5079238;28;20048;-91
2022/04/06 03:35:09;;;;;;;13.80;9.30;;;;;;;3.14;93.78;98362.94;5080107;28;20052;-94
2022/04/06 03:37:37;;;;;;;13.35;8.32;;;;;;;3.04;94.86;98352.47;5080153;28;20089;-92
2022/04/06 03:40:05;;;;;;;11.90;8.20;;;;;;;3.16;94.14;98369.91;5079393;28;20068;-94
2022/04/06 03:42:32;;;;;;;14.20;9.05;;;;;;;3.18;94.88;98362.03;5078781;28;20107;-93
2022/04/06 03:45:01;;;;;;;15.18;9.20;;;;;;;3.16;94.85;98372.53;5079522;28;20102;-92
2022/04/06 03:47:30;;;;;;;15.05;9.70;;;;;;;3.05;95.21;98363.84;5080017;28;20040;-91
2022/04/06 03:49:56;;;;;;;14.23;9.18;;;;;;;3.04;94.54;98375.25;5079280;28;20056;-91
2022/04/06 03:52:22;;;;;;;18.42;9.88;;;;;;;3.03;94.00;98384.84;5078899;28;20367;-92
2022/04/06 03:54:50;;;;;;;17.55;10.40;;;;;;;2.91;95.03;98373.50;5079211;28;20055;-92
2022/04/06 03:57:15;;;;;;;17.23;9.63;;;;;;;2.65;95.03;98343.81;5080269;28;20041;-93
2022/04/06 03:59:41;;;;;;;15.23;9.32;;;;;;;2.63;95.31;98347.34;5090568;28;20052;-93
2022/04/06 04:02:07;;;;;;;16.45;10.57;;;;;;;2.68;96.42;98375.31;5078491;28;20051;-92
2022/04/06 04:04:33;;;;;;;18.25;11.38;;;;;;;2.61;96.64;98378.81;5079597;28;20131;-92
2022/04/06 04:06:59;;;;;;;18.60;10.77;;;;;;;2.50;96.45;98375.34;5079219;28;20076;-91
2022/04/06 04:09:25;;;;;;;17.52;11.57;;;;;;;2.40;96.77;98360.47;5078580;28;20052;-93
2022/04/06 04:11:54;;;;;;;21.17;12.00;;;;;;;2.34;98.15;98353.50;5078165;28;20170;-92
2022/04/06 04:14:20;;;;;;;18.45;11.02;;;;;;;2.31;98.26;98360.50;5077558;28;20037;-92
2022/04/06 04:16:46;;;;;;;18.33;11.55;;;;;;;2.23;97.79;98353.53;5076999;28;20047;-94
2022/04/06 04:19:12;;;;;;;19.35;12.45;;;;;;;2.34;98.41;98378.84;5077994;28;20127;-93
2022/04/06 04:21:37;;;;;;;18.75;11.75;;;;;;;2.32;98.41;98388.47;5077745;28;20075;-92
2022/04/06 04:24:05;;;;;;;19.63;11.48;;;;;;;2.25;99.72;98377.97;5078307;28;20041;-92
2022/04/06 04:26:31;;;;;;;20.10;11.30;;;;;;;2.05;99.70;98353.50;5077746;28;20049;-92
2022/04/06 04:28:59;;;;;;;17.23;10.77;;;;;;;2.08;99.06;98357.88;5077526;28;20048;-91
2022/04/06 04:31:24;;;;;;;16.55;10.85;;;;;;;2.00;99.68;98352.63;5077473;28;20070;-91
2022/04/06 04:33:50;;;;;;;18.40;10.55;;;;;;;2.09;99.83;98362.25;5077588;28;20132;-93
2022/04/06 04:36:16;;;;;;;18.00;10.68;;;;;;;2.13;99.33;98393.72;5080449;28;20075;-92
2022/04/06 04:38:43;;;;;;;16.65;10.18;;;;;;;2.15;99.84;98396.38;5079958;28;20489;-93
2022/04/06 04:41:09;;;;;;;15.45;10.18;;;;;;;2.06;99.48;98376.25;5079249;28;20044;-91
2022/04/06 04:43:36;;;;;;;17.85;10.95;;;;;;;2.01;99.94;98372.72;5078977;28;20394;-91
2022/04/06 04:46:04;;;;;;;19.30;10.93;;;;;;;1.98;100.00;98372.75;5078160;28;20055;-93
2022/04/06 04:48:30;;;;;;;16.80;10.60;;;;;;;2.10;100.00;98398.94;5077959;28;20039;-93
2022/04/06 04:50:56;;;;;;;18.85;12.10;;;;;;;1.95;100.00;98393.69;5078390;28;20108;-92
2022/04/06 04:53:22;;;;;;;18.20;11.02;;;;;;;1.95;100.00;98393.69;5078122;28;20117;-92
2022/04/06 04:55:48;;;;;;;17.67;10.98;;;;;;;1.84;100.00;98375.31;5078748;28;20123;-92
2022/04/06 04:58:13;;;;;;;16.27;10.77;;;;;;;2.15;100.00;98397.22;5078032;28;20041;-92
2022/04/06 05:00:39;;;;;;;16.98;11.20;;;;;;;2.34;100.00;98397.22;5078254;28;20128;-93
2022/04/06 05:03:08;;;;;;;17.40;11.98;;;;;;;2.26;100.00;98361.38;5078073;28;20044;-93
2022/04/06 05:05:34;;;;;;;14.88;9.73;;;;;;;2.37;100.00;98361.38;5078162;28;20087;-93
2022/04/06 05:08:00;;;;;;;15.52;9.13;;;;;;;2.57;100.00;98382.34;5078497;28;20047;-94
2022/04/06 05:10:27;;;;;;;16.48;10.85;;;;;;;2.56;100.00;98356.97;5058291;28;20091;-92
2022/04/06 05:12:53;;;;;;;14.70;9.75;;;;;;;2.70;100.00;98375.31;5058372;28;20037;-92
2022/04/06 05:15:19;;;;;;;15.50;9.85;;;;;;;2.78;100.00;98372.69;5076172;28;20547;-93
2022/04/06 05:17:45;;;;;;;13.35;8.55;;;;;;;2.94;99.58;98402.41;5078323;28;20398;-93
2022/04/06 05:20:12;;;;;;;13.32;9.45;;;;;;;2.89;99.03;98384.03;5078704;28;20044;-93
2022/04/06 05:22:39;;;;;;;16.77;9.27;;;;;;;2.87;98.71;98362.16;5078847;28;20099;-93
2022/04/06 05:25:07;;;;;;;11.27;8.77;;;;;;;3.02;97.76;98369.97;5078590;28;20048;-92
2022/04/06 05:27:42;;;;;;;12.30;8.48;;;;;;;3.19;97.28;98388.31;5076432;28;20052;-92
2022/04/06 05:30:08;;;;;;;16.13;9.75;;;;;;;3.28;96.87;98384.78;5077638;28;20044;-93
2022/04/06 05:32:35;;;;;;;15.30;9.65;;;;;;;3.42;96.31;98379.44;5077521;28;20055;-93
2022/04/06 05:35:02;;;;;;;14.68;10.65;;;;;;;3.59;95.35;98389.88;5077213;28;20049;-92
2022/04/06 05:37:34;;;;;;;12.60;8.68;;;;;;;3.49;94.95;98349.59;5082024;28;20044;-92
2022/04/06 05:40:00;;;;;;;13.43;8.75;;;;;;;3.71;94.39;98363.53;5078420;28;20040;-93
2022/04/06 05:42:26;;;;;;;11.73;7.82;;;;;;;3.92;93.00;98378.28;5080214;28;20047;-92
2022/04/06 05:44:52;;;;;;;12.45;8.10;;;;;;;3.99;92.38;98371.22;5077632;28;20045;-93
2022/04/06 05:47:19;;;;;;;12.32;7.80;;;;;;;4.12;92.04;98370.25;5078521;28;20049;-93
2022/04/06 05:49:45;;;;;;;11.93;7.50;;;;;;;4.22;91.29;98377.19;5077981;28;20106;-93
2022/04/06 05:52:11;;;;;;;9.95;7.28;;;;;;;4.10;90.90;98349.22;5078371;28;20040;-94
2022/04/06 05:54:38;;;;;;;10.90;8.15;;;;;;;4.23;90.21;98357.00;5078457;28;20084;-93
2022/04/06 05:57:04;;;;;;;13.63;8.40;;;;;;;4.33;90.49;98364.81;5077908;28;20045;-92
2022/04/06 05:59:30;;;;;;;16.10;8.93;;;;;;;4.57;89.81;98377.78;5078235;28;20104;-92
2022/04/06 06:01:55;;;;;;;11.70;7.75;;;;;;;4.69;89.12;98356.59;5080147;28;20045;-92
2022/04/06 06:04:21;;;;;;;13.10;8.20;;;;;;;5.01;88.25;98377.31;5080432;28;20048;-92
2022/04/06 06:06:48;;;;;;;13.10;8.20;;;;;;;5.20;86.67;98366.56;5082902;28;20087;-91
2022/04/06 06:09:14;;;;;;;12.13;8.05;;;;;;;5.19;85.83;98346.38;5077953;28;20021;-93
2022/04/06 06:11:41;;;;;;;13.23;8.63;;;;;;;5.45;86.15;98375.03;5078440;28;20056;-92
2022/04/06 06:14:08;;;;;;;16.10;8.45;;;;;;;5.41;85.80;98373.34;5077725;28;20075;-92
2022/04/06 06:16:35;;;;;;;14.05;8.02;;;;;;;5.59;84.80;98367.81;5081340;28;20043;-94
2022/04/06 06:19:01;;;;;;;11.10;8.02;;;;;;;5.85;82.60;98375.34;5093461;28;20040;-92
2022/04/06 06:21:31;;;;;;;13.10;7.82;;;;;;;5.80;82.41;98345.53;5077175;28;20048;-91
2022/04/06 06:24:00;;;;;;;15.18;8.77;;;;;;;6.05;82.05;98345.19;5079154;28;20044;-92
2022/04/06 06:26:30;;;;;;;11.48;7.60;;;;;;;6.27;81.56;98378.28;5080094;28;20045;-94
2022/04/06 06:29:07;;;;;;;12.23;8.88;;;;;;;6.32;80.57;98375.56;5081318;28;20044;-92
2022/04/06 06:31:46;;;;;;;14.13;8.63;;;;;;;6.12;81.10;98341.56;5084921;28;20040;-92
2022/04/06 06:34:32;;;;;;;;;;;;;;;;;;;;;
2022/04/06 06:37:06;;;;;;;13.63;8.63;;;;;;;6.42;80.02;98350.75;5080152;28;20490;-94
2022/04/06 06:39:33;;;;;;;13.93;8.32;;;;;;;6.81;79.39;98385.31;5080353;28;20048;-94
2022/04/06 06:42:01;;;;;;;11.38;7.50;;;;;;;6.94;78.54;98384.16;5083428;28;20079;-93
2022/04/06 06:44:45;;;;;;;12.52;7.85;;;;;;;7.13;78.19;98368.81;5083849;28;20048;-94
2022/04/06 06:47:19;;;;;;;13.07;8.00;;;;;;;7.39;75.85;98372.69;5083015;28;20044;-93
2022/04/06 06:49:46;;;;;;;9.95;7.28;;;;;;;7.59;74.21;98373.16;5081965;28;20044;-92
2022/04/06 06:52:18;;;;;;;9.98;7.13;;;;;;;7.70;72.99;98357.06;5083108;28;20076;-92
2022/04/06 06:54:48;;;;;;;9.50;7.13;;;;;;;7.92;72.94;98362.72;5060075;28;20052;-93
2022/04/06 06:57:15;;;;;;;11.32;7.60;;;;;;;8.05;72.54;98359.81;5060333;28;20048;-93
2022/04/06 06:59:57;;;;;;;11.52;7.50;;;;;;;8.24;71.98;98366.41;5057820;28;20452;-93
2022/04/06 07:02:25;;;;;;;14.60;8.23;;;;;;;8.35;71.37;98356.41;5065528;28;20059;-92
2022/04/06 07:04:55;;;;;;;19.77;8.20;;;;;;;8.62;71.99;98368.13;5079397;28;20045;-93
2022/04/06 07:07:31;;;;;;;13.82;8.25;;;;;;;8.77;71.99;98358.91;5077250;28;20047;-93
2022/04/06 07:10:00;;;;;;;12.30;8.50;;;;;;;8.91;70.49;98357.66;5078493;28;20123;-93
2022/04/06 07:12:36;;;;;;;12.82;8.07;;;;;;;9.09;70.67;98367.78;5079583;28;20086;-94
2022/04/06 07:15:06;;;;;;;14.98;8.45;;;;;;;9.07;69.48;98336.91;5080482;28;20440;-94
2022/04/06 07:17:33;;;;;;;13.18;7.72;;;;;;;9.16;68.75;98334.00;5081483;28;20044;-93
2022/04/06 07:20:00;;;;;;;11.60;7.93;;;;;;;9.37;67.52;98351.09;5082742;28;20049;-94
2022/04/06 07:22:28;;;;;;;11.48;7.47;;;;;;;9.44;66.54;98336.72;5081523;28;20103;-94
2022/04/06 07:24:56;;;;;;;13.18;8.63;;;;;;;9.59;66.99;98352.19;5080632;28;20041;-93
2022/04/06 07:27:27;;;;;;;11.45;8.25;;;;;;;9.61;66.18;98334.44;5080571;28;20048;-93
2022/04/06 07:30:06;;;;;;;13.13;7.82;;;;;;;9.69;66.26;98339.50;5080333;28;20044;-93
2022/04/06 07:32:35;;;;;;;12.40;7.72;;;;;;;9.88;65.77;98359.25;5079422;28;20053;-94
2022/04/06 07:35:06;;;;;;;11.38;7.40;;;;;;;9.86;65.21;98329.22;5079690;28;20036;-95
2022/04/06 07:37:35;;;;;;;13.00;8.50;;;;;;;9.96;64.77;98321.84;5080276;28;20049;-93
2022/04/06 07:40:01;;;;;;;;;;;;;;;10.24;64.40;98343.09;5079434;28;20055;-94
2022/04/06 07:42:27;;;;;;;10.30;7.43;;;;;;;10.10;63.79;98315.22;5080134;28;19916;-94
2022/04/06 07:44:53;;;;;;;11.20;7.88;;;;;;;10.31;63.75;98332.28;5077408;28;20052;-92
2022/04/06 07:47:20;;;;;;;12.93;8.02;;;;;;;10.32;63.78;98324.25;5076293;28;20048;-93
2022/04/06 07:49:46;;;;;;;10.80;8.07;;;;;;;10.36;62.27;98317.03;5077045;28;20036;-93
2022/04/06 07:52:13;;;;;;;12.55;8.13;;;;;;;10.60;62.97;98345.44;5079141;28;20049;-93
2022/04/06 07:54:38;;;;;;;11.60;7.43;;;;;;;10.84;61.90;98327.81;5077548;28;20147;-93
2022/04/06 07:57:04;;;;;;;11.80;7.70;;;;;;;10.90;61.51;98324.03;5077310;28;20076;-93
2022/04/06 07:59:30;;;;;;;11.05;7.28;;;;;;;10.91;60.83;98301.84;5078544;28;20044;-94
2022/04/06 08:01:56;;;;;;;10.93;8.00;;;;;;;10.89;59.85;98301.03;5080312;28;20045;-94
2022/04/06 08:04:23;;;;;;;11.52;8.10;;;;;;;10.98;60.87;98297.19;5080793;28;20067;-94
2022/04/06 08:06:49;;;;;;;12.07;8.02;;;;;;;11.02;61.63;98291.69;5080666;28;20049;-94
2022/04/06 08:09:15;;;;;;;11.52;7.43;;;;;;;11.11;60.60;98290.47;5081099;28;20040;-95
2022/04/06 08:11:41;;;;;;;11.68;8.57;;;;;;;11.36;61.00;98319.69;5079968;28;20064;-95
2022/04/06 08:14:07;;;;;;;11.13;7.70;;;;;;;11.56;59.04;98332.28;5079529;28;20076;-95
2022/04/06 08:16:33;;;;;;;11.05;7.43;;;;;;;11.43;59.90;98304.38;5080689;28;20098;-93
2022/04/06 08:18:59;;;;;;;11.77;7.93;;;;;;;11.31;61.11;98295.06;5079287;28;20040;-94
2022/04/06 08:21:27;;;;;;;14.07;8.07;;;;;;;11.59;59.53;98288.69;5079365;28;20142;-95
2022/04/06 08:23:53;;;;;;;13.98;10.32;;;;;;;11.69;57.95;98282.94;5080221;28;20047;-94
2022/04/06 08:26:19;;;;;;;11.68;8.52;;;;;;;11.53;57.81;98295.09;5080704;28;20060;-95
2022/04/06 08:28:46;;;;;;;12.35;10.23;;;;;;;11.19;59.24;98298.16;5081121;28;20056;-95
2022/04/06 08:31:12;;;;;;;22.17;9.63;;;;;;;11.37;60.18;98278.00;5080622;28;20074;-92
2022/04/06 08:33:42;;;;;;;12.57;8.38;;;;;;;11.22;60.66;98293.59;5078644;28;20036;-92
2022/04/06 08:36:09;;;;;;;11.98;8.18;;;;;;;11.23;58.47;98291.81;5083179;28;20044;-91
2022/04/06 08:38:36;;;;;;;11.23;8.23;;;;;;;11.33;59.18;98273.72;5082164;28;20404;-95
2022/04/06 08:41:02;;;;;;;11.32;7.25;;;;;;;11.75;55.85;98271.16;5083357;28;20045;-94
2022/04/06 08:43:28;;;;;;;11.50;8.13;;;;;;;12.13;55.35;98269.63;5082056;28;20128;-95
2022/04/06 08:45:54;;;;;;;10.25;7.53;;;;;;;12.57;52.87;98267.81;5086840;28;20566;-95
2022/04/06 08:48:25;;;;;;;12.55;8.00;;;;;;;12.82;53.57;98268.50;5081659;28;20048;-96
2022/04/06 08:50:52;;;;;;;13.43;7.72;;;;;;;13.10;55.45;98291.28;5082114;28;20070;-93
2022/04/06 08:53:20;;;;;;;15.07;8.98;;;;;;;12.88;54.49;98270.91;5080328;28;20135;-95
2022/04/06 08:55:47;;;;;;;15.02;8.88;;;;;;;13.03;54.34;98265.78;5080702;28;20045;-96
2022/04/06 08:58:13;;;;;;;11.75;7.60;;;;;;;12.99;54.21;98273.09;5080712;28;20046;-95
2022/04/06 09:00:40;;;;;;;11.75;8.05;;;;;;;13.32;55.20;98300.09;5080908;28;20079;-96
2022/04/06 09:03:07;;;;;;;10.80;7.82;;;;;;;13.48;54.18;98286.03;5079200;28;20040;-96
2022/04/06 09:05:34;;;;;;;13.02;8.73;;;;;;;13.75;53.04;98282.06;5080454;28;20044;-94
2022/04/06 09:08:01;;;;;;;17.83;8.68;;;;;;;13.79;52.83;98282.75;5081030;28;20435;-95
2022/04/06 09:10:29;;;;;;;17.52;9.20;;;;;;;13.78;52.24;98270.34;5080630;28;20131;-95
2022/04/06 09:13:11;;;;;;;13.98;9.05;;;;;;;13.88;51.85;98265.41;5080901;28;20071;-95
2022/04/06 09:15:37;;;;;;;19.40;9.30;;;;;;;13.71;51.13;98259.09;5084612;28;20045;-94
2022/04/06 09:18:04;;;;;;;15.00;9.25;;;;;;;13.74;52.45;98261.59;5082205;28;20044;-95
2022/04/06 09:20:31;;;;;;;15.43;9.50;;;;;;;13.86;51.87;98259.31;5081134;28;20079;-96
2022/04/06 09:23:00;;;;;;;12.40;9.35;;;;;;;13.99;50.69;98257.75;5081096;28;20054;-94
2022/04/06 09:25:31;;;;;;;13.30;8.70;;;;;;;14.14;50.23;98278.38;5082017;28;20044;-95
2022/04/06 09:28:05;;;;;;;18.33;9.07;;;;;;;14.20;50.43;98257.63;5081102;28;20052;-94
2022/04/06 09:30:36;;;;;;;15.90;8.75;;;;;;;14.31;50.43;98252.59;5081435;28;20044;-95
2022/04/06 09:33:03;;;;;;;14.70;8.43;;;;;;;14.23;49.85;98236.94;5080443;28;20044;-95
2022/04/06 09:35:31;;;;;;;15.13;7.90;;;;;;;14.47;49.35;98242.00;5082898;28;20048;-95
2022/04/06 09:38:20;;;;;;;13.45;8.50;;;;;;;14.44;49.86;98237.63;5081078;28;20048;-95
2022/04/06 09:40:47;;;;;;;15.68;8.85;;;;;;;14.58;49.41;98240.53;5076288;28;20037;-94
2022/04/06 09:43:26;;;;;;;12.57;8.50;;;;;;;14.72;49.10;98249.63;5080819;28;20049;-94
2022/04/06 09:48:57;;;;;;;14.98;9.52;;;;;;;14.62;49.29;98251.94;5130311;27;20359;-94
2022/04/06 09:51:23;;;;;;;21.43;10.73;;;;;;;14.53;50.23;98253.25;5098311;28;20044;-94
2022/04/06 09:53:52;;;;;;;18.15;11.30;;;;;;;14.34;50.10;98245.28;5098514;28;20281;-94
2022/04/06 09:56:18;;;;;;;21.50;10.40;;;;;;;13.96;51.38;98244.53;5099095;28;20063;-95
2022/04/06 09:58:45;;;;;;;15.55;9.20;;;;;;;13.89;51.90;98251.13;5096575;28;20097;-93
2022/04/06 10:01:12;;;;;;;14.63;8.35;;;;;;;13.64;53.49;98236.28;5096738;28;20056;-95
2022/04/06 10:03:40;;;;;;;15.10;9.25;;;;;;;13.77;54.02;98242.75;5097587;28;20050;-95
2022/04/06 10:06:09;;;;;;;14.38;9.07;;;;;;;13.90;53.31;98234.13;5097185;28;20405;-95
2022/04/06 10:08:38;;;;;;;15.63;9.18;;;;;;;14.05;52.62;98230.72;5097808;28;20067;-96
2022/04/06 10:11:05;;;;;;;15.43;7.75;;;;;;;14.17;52.74;98240.78;5098495;28;20590;-96
2022/04/06 10:13:31;;;;;;;12.18;7.70;;;;;;;14.15;51.75;98220.41;5096526;28;20044;-94
2022/04/06 10:15:58;;;;;;;9.82;7.00;;;;;;;14.08;50.82;98211.84;5097598;28;20128;-96
2022/04/06 10:18:25;;;;;;;9.88;6.28;;;;;;;14.27;51.82;98230.50;5098301;28;20048;-95
2022/04/06 10:20:55;;;;;;;8.18;5.32;;;;;;;14.18;47.69;98207.78;5098172;28;20148;-94
2022/04/06 10:23:38;;;;;;;9.52;5.70;;;;;;;14.35;47.90;98222.06;5097597;28;20190;-95
2022/04/06 10:26:14;;;;;;;8.32;5.72;;;;;;;14.50;48.23;98226.63;5098223;28;20105;-95
2022/04/06 10:28:44;;;;;;;8.15;5.50;;;;;;;14.45;47.57;98223.34;5097693;28;20050;-95
2022/04/06 10:31:16;;;;;;;10.20;4.72;;;;;;;14.49;45.86;98203.50;5098526;28;20045;-95
2022/04/06 10:33:42;;;;;;;8.18;4.65;;;;;;;14.59;44.63;98217.28;5097678;28;20049;-96
2022/04/06 10:36:28;;;;;;;8.48;5.10;;;;;;;14.62;44.08;98208.28;5098805;28;20098;-95
2022/04/06 10:39:15;;;;;;;11.90;5.13;;;;;;;15.10;43.04;98220.84;5096938;28;20055;-94
2022/04/06 10:42:13;;;;;;;7.55;4.55;;;;;;;15.34;41.96;98199.88;5097762;28;20513;-95
2022/04/06 10:44:40;;;;;;;10.73;5.13;;;;;;;14.86;43.89;98201.59;5095377;28;20040;-95
2022/04/06 10:47:08;;;;;;;9.90;5.47;;;;;;;14.78;45.20;98193.13;5096582;28;20289;-96
2022/04/06 10:49:34;;;;;;;11.40;5.97;;;;;;;15.08;45.05;98187.91;5097880;28;20041;-96
2022/04/06 10:52:18;;;;;;;10.43;5.88;;;;;;;15.04;44.66;98197.06;5096959;28;20040;-94
2022/04/06 10:54:45;;;;;;;9.20;6.35;;;;;;;14.89;45.63;98201.44;5096847;28;20049;-93
2022/04/06 10:57:12;;;;;;;8.60;5.90;;;;;;;15.10;46.04;98188.69;5097929;28;20592;-96
2022/04/06 10:59:38;;;;;;;9.75;6.03;;;;;;;15.09;46.70;98178.91;5086458;28;20036;-96
2022/04/06 11:02:34;;;;;;;11.52;7.57;;;;;;;15.34;45.80;98212.41;5083013;28;20498;-95
2022/04/06 11:05:02;;;;;;;9.93;6.93;;;;;;;15.48;46.16;98196.41;5040674;28;20045;-95
2022/04/06 11:11:44;;;;;;;12.80;7.50;;;;;;;15.09;48.18;98220.91;5080265;27;20418;-96
2022/04/06 11:14:11;;;;;;;11.03;7.27;;;;;;;15.26;48.24;98187.84;5080241;28;20082;-95
2022/04/06 11:16:45;;;;;;;12.15;7.22;;;;;;;15.20;47.87;98197.06;5078717;28;20072;-95
2022/04/06 11:19:12;;;;;;;11.10;8.13;;;;;;;15.22;48.43;98181.78;5079022;28;20055;-94
2022/04/06 11:21:49;;;;;;;9.30;6.60;;;;;;;15.13;48.85;98195.69;5079060;28;20052;-95
2022/04/06 11:24:17;;;;;;;10.23;7.28;;;;;;;15.10;49.53;98179.81;5077376;28;20517;-96
2022/04/06 11:26:45;;;;;;;12.13;7.00;;;;;;;15.09;49.46;98188.78;5077122;28;20052;-94
2022/04/06 11:29:12;;;;;;;12.95;7.28;;;;;;;15.11;49.95;98201.13;5078143;28;20386;-94
2022/04/06 11:31:53;;;;;;;13.82;9.15;;;;;;;15.03;50.94;98207.84;5077704;28;20050;-94
2022/04/06 11:34:32;;;;;;;12.98;8.27;;;;;;;14.58;51.23;98192.34;5078673;28;20099;-95
2022/04/06 11:36:58;;;;;;;12.80;8.68;;;;;;;14.61;51.71;98188.66;5077013;28;20040;-95
2022/04/06 11:39:24;;;;;;;13.20;8.93;;;;;;;14.62;52.95;98192.22;5077895;28;20067;-94
2022/04/06 11:41:52;;;;;;;14.63;9.73;;;;;;;14.66;52.12;98196.44;5077123;28;20075;-94
2022/04/06 11:44:19;;;;;;;12.30;8.98;;;;;;;14.60;53.01;98192.28;5076047;28;20513;-95
2022/04/06 11:46:46;;;;;;;15.27;9.13;;;;;;;14.63;52.68;98188.56;5078803;28;20060;-96